createdAt,value
2022-11-15T00:01:09.150Z,38.77
2022-11-15T00:03:35.957Z,42.50
2022-11-15T00:06:04.658Z,39.47
2022-11-15T00:08:35.453Z,45.80
2022-11-15T00:11:04.385Z,42.70
2022-11-15T00:13:31.928Z,50.93
2022-11-15T00:16:00.574Z,46.17
2022-11-15T00:18:30.755Z,50.27
2022-11-15T00:21:03.409Z,48.37
2022-11-15T00:23:30.452Z,55.23
2022-11-15T00:26:00.722Z,53.47
2022-11-15T00:28:33.631Z,54.17
2022-11-15T00:31:05.419Z,50.50
2022-11-15T00:33:32.823Z,44.27
2022-11-15T00:36:10.161Z,49.90
2022-11-15T00:38:39.100Z,48.10
2022-11-15T00:41:09.660Z,46.07
2022-11-15T00:43:39.360Z,50.20
2022-11-15T00:46:06.530Z,45.23
2022-11-15T00:48:33.584Z,50.50
2022-11-15T00:51:00.432Z,47.20
2022-11-15T00:53:27.408Z,49.70
2022-11-15T00:55:54.445Z,46.93
2022-11-15T00:58:21.239Z,45.43
2022-11-15T01:00:50.226Z,46.40
2022-11-15T01:03:17.106Z,47.37
2022-11-15T01:05:44.004Z,50.80
2022-11-15T01:08:17.410Z,42.07
2022-11-15T01:10:44.204Z,39.03
2022-11-15T01:13:11.046Z,47.77
2022-11-15T01:15:41.350Z,42.13
2022-11-15T01:18:08.423Z,40.80
2022-11-15T01:20:35.221Z,39.13
2022-11-15T01:23:02.003Z,39.90
2022-11-15T01:25:29.135Z,36.70
2022-11-15T01:27:56.059Z,36.27
2022-11-15T01:30:22.827Z,40.33
2022-11-15T01:32:49.875Z,39.43
2022-11-15T01:35:16.695Z,39.83
2022-11-15T01:37:43.484Z,36.03
2022-11-15T01:40:10.647Z,37.63
2022-11-15T01:42:37.428Z,39.60
2022-11-15T01:45:04.786Z,40.63
2022-11-15T01:47:38.373Z,35.83
2022-11-15T01:50:13.112Z,37.30
2022-11-15T01:52:41.592Z,39.60
2022-11-15T01:55:22.250Z,37.80
2022-11-15T01:57:56.369Z,41.80
2022-11-15T02:00:23.161Z,36.73
2022-11-15T02:02:49.874Z,39.77
2022-11-15T02:05:16.925Z,31.43
2022-11-15T02:07:44.263Z,35.17
2022-11-15T02:10:14.379Z,42.37
2022-11-15T02:12:44.417Z,35.23
2022-11-15T02:15:14.468Z,34.30
2022-11-15T02:17:43.903Z,32.40
2022-11-15T02:20:46.035Z,38.20
2022-11-15T02:23:30.346Z,35.87
2022-11-15T02:26:24.223Z,33.77
2022-11-15T02:29:07.543Z,36.30
2022-11-15T02:31:48.662Z,36.60
2022-11-15T02:34:35.845Z,32.43
2022-11-15T02:37:12.997Z,38.77
2022-11-15T02:40:16.994Z,34.30
2022-11-15T02:43:13.864Z,34.33
2022-11-15T02:45:52.752Z,34.00
2022-11-15T02:48:22.418Z,34.43
2022-11-15T02:50:49.495Z,32.30
2022-11-15T02:53:16.604Z,32.77
2022-11-15T02:55:47.827Z,34.07
2022-11-15T02:58:23.320Z,33.53
2022-11-15T03:01:10.405Z,33.03
2022-11-15T03:04:20.350Z,33.80
2022-11-15T03:06:57.108Z,33.73
2022-11-15T03:09:33.388Z,34.00
2022-11-15T03:12:23.307Z,32.63
2022-11-15T03:15:06.539Z,34.37
2022-11-15T03:17:43.736Z,34.00
2022-11-15T03:20:13.166Z,33.13
2022-11-15T03:22:44.417Z,34.33
2022-11-15T03:25:21.710Z,33.40
2022-11-15T03:27:53.592Z,32.13
2022-11-15T03:30:20.677Z,30.60
2022-11-15T03:33:00.030Z,35.00
2022-11-15T03:35:30.223Z,31.83
2022-11-15T03:38:18.208Z,33.40
2022-11-15T03:41:09.126Z,32.40
2022-11-15T03:43:58.282Z,31.70
2022-11-15T03:46:32.747Z,35.67
2022-11-15T03:49:15.287Z,34.50
2022-11-15T03:51:42.415Z,37.73
2022-11-15T03:54:09.387Z,33.67
2022-11-15T03:56:36.084Z,33.73
2022-11-15T03:59:02.804Z,33.03
2022-11-15T04:01:29.604Z,35.77
2022-11-15T04:03:56.527Z,32.07
2022-11-15T04:06:23.369Z,29.37
2022-11-15T04:08:50.071Z,33.23
2022-11-15T04:11:16.833Z,35.30
2022-11-15T04:13:43.574Z,34.13
2022-11-15T04:16:10.345Z,32.97
2022-11-15T04:18:37.147Z,32.40
2022-11-15T04:21:22.344Z,32.93
2022-11-15T04:24:07.653Z,31.10
2022-11-15T04:26:34.919Z,32.57
2022-11-15T04:29:20.181Z,34.60
2022-11-15T04:31:46.933Z,33.67
2022-11-15T04:34:13.725Z,31.73
2022-11-15T04:36:59.050Z,35.13
2022-11-15T04:39:28.414Z,36.13
2022-11-15T04:41:55.175Z,33.50
2022-11-15T04:44:22.089Z,32.87
2022-11-15T04:46:48.751Z,36.93
2022-11-15T04:49:15.431Z,38.30
2022-11-15T04:51:42.225Z,36.20
2022-11-15T04:54:08.957Z,33.03
2022-11-15T04:56:35.659Z,35.70
2022-11-15T04:59:02.510Z,32.90
2022-11-15T05:01:29.387Z,34.73
2022-11-15T05:04:14.792Z,36.93
2022-11-15T05:06:43.797Z,34.30
2022-11-15T05:09:10.729Z,32.93
2022-11-15T05:11:37.424Z,36.30
2022-11-15T05:14:04.338Z,35.43
2022-11-15T05:16:31.213Z,37.80
2022-11-15T05:18:58.074Z,36.50
2022-11-15T05:21:25.104Z,38.53
2022-11-15T05:23:51.840Z,36.07
2022-11-15T05:26:19.394Z,44.13
2022-11-15T05:28:46.611Z,38.47
2022-11-15T05:31:17.463Z,34.10
2022-11-15T05:33:45.112Z,42.77
2022-11-15T05:36:15.763Z,35.33
2022-11-15T05:38:43.210Z,34.67
2022-11-15T05:41:10.357Z,32.77
2022-11-15T05:43:39.853Z,33.87
2022-11-15T05:46:06.908Z,33.80
2022-11-15T05:48:37.199Z,38.17
2022-11-15T05:51:05.930Z,35.77
2022-11-15T05:53:33.317Z,33.83
2022-11-15T05:56:00.552Z,35.17
2022-11-15T05:58:27.447Z,36.37
2022-11-15T06:00:55.461Z,35.43
2022-11-15T06:03:22.275Z,33.17
2022-11-15T06:05:48.984Z,34.50
2022-11-15T06:08:15.646Z,35.50
2022-11-15T06:10:42.505Z,34.67
2022-11-15T06:13:09.314Z,36.43
2022-11-15T06:15:36.004Z,33.77
2022-11-15T06:18:08.672Z,36.30
2022-11-15T06:20:35.401Z,44.63
2022-11-15T06:23:04.255Z,31.23
2022-11-15T06:25:32.459Z,32.03
2022-11-15T06:27:59.989Z,37.77
2022-11-15T06:30:27.721Z,30.23
2022-11-15T06:33:05.650Z,35.87
2022-11-15T06:35:35.007Z,30.50
2022-11-15T06:38:10.407Z,32.87
2022-11-15T06:40:38.279Z,31.70
2022-11-15T06:43:06.256Z,29.83
2022-11-15T06:45:33.321Z,28.70
2022-11-15T06:48:08.229Z,31.77
2022-11-15T06:50:57.332Z,35.37
2022-11-15T06:53:24.804Z,33.00
2022-11-15T06:55:55.223Z,30.57
2022-11-15T06:58:25.494Z,32.17
2022-11-15T07:00:52.226Z,24.80
2022-11-15T07:03:22.138Z,30.90
2022-11-15T07:05:56.718Z,27.67
2022-11-15T07:08:24.699Z,27.47
2022-11-15T07:10:51.649Z,26.93
2022-11-15T07:13:18.712Z,24.97
2022-11-15T07:15:45.514Z,24.83
2022-11-15T07:18:12.430Z,28.33
2022-11-15T07:20:40.468Z,24.80
2022-11-15T07:23:07.309Z,26.30
2022-11-15T07:25:34.302Z,24.47
2022-11-15T07:28:02.003Z,23.37
2022-11-15T07:30:29.559Z,23.77
2022-11-15T07:32:57.834Z,31.57
2022-11-15T07:35:26.224Z,23.93
2022-11-15T07:38:01.233Z,23.20
2022-11-15T07:40:30.043Z,23.17
2022-11-15T07:43:04.921Z,23.80
2022-11-15T07:45:32.126Z,23.90
2022-11-15T07:47:58.943Z,22.43
2022-11-15T07:50:26.891Z,23.57
2022-11-15T07:52:57.836Z,19.60
2022-11-15T07:55:25.979Z,21.60
2022-11-15T07:57:52.714Z,22.57
2022-11-15T08:00:24.662Z,21.40
2022-11-15T08:02:51.647Z,19.53
2022-11-15T08:05:18.721Z,19.97
2022-11-15T08:07:45.552Z,22.97
2022-11-15T08:10:12.986Z,20.97
2022-11-15T08:12:39.768Z,23.73
2022-11-15T08:15:07.102Z,25.47
2022-11-15T08:17:34.905Z,21.63
2022-11-15T08:20:01.881Z,23.23
2022-11-15T08:22:31.217Z,28.27
2022-11-15T08:24:57.976Z,25.03
2022-11-15T08:27:24.700Z,22.30
2022-11-15T08:29:55.560Z,23.70
2022-11-15T08:32:25.965Z,20.90
2022-11-15T08:34:55.462Z,22.60
2022-11-15T08:37:22.183Z,17.23
2022-11-15T08:39:48.898Z,18.33
2022-11-15T08:42:19.973Z,17.40
2022-11-15T08:44:46.967Z,20.93
2022-11-15T08:47:14.806Z,17.60
2022-11-15T08:49:41.537Z,17.13
2022-11-15T08:52:08.422Z,16.73
2022-11-15T08:54:35.203Z,18.30
2022-11-15T08:57:05.411Z,15.93
2022-11-15T08:59:41.426Z,16.27
2022-11-15T09:02:12.440Z,17.37
2022-11-15T09:04:42.132Z,17.43
2022-11-15T09:07:09.930Z,15.13
2022-11-15T09:09:37.187Z,16.47
2022-11-15T09:12:04.747Z,15.20
2022-11-15T09:14:31.567Z,13.00
2022-11-15T09:16:59.305Z,16.10
2022-11-15T09:19:28.723Z,11.23
2022-11-15T09:21:55.498Z,10.83
2022-11-15T09:24:22.219Z,11.20
2022-11-15T09:26:52.092Z,10.47
2022-11-15T09:29:19.466Z,10.83
2022-11-15T09:31:46.238Z,10.67
2022-11-15T09:34:13.374Z,9.90
2022-11-15T09:36:40.078Z,8.27
2022-11-15T09:39:06.873Z,7.03
2022-11-15T09:41:39.540Z,7.97
2022-11-15T09:44:25.776Z,6.80
2022-11-15T09:46:58.488Z,6.80
2022-11-15T09:49:25.291Z,7.37
2022-11-15T09:51:55.148Z,5.57
2022-11-15T09:54:52.096Z,5.97
2022-11-15T09:57:19.471Z,6.37
2022-11-15T10:00:44.640Z,5.67
2022-11-15T10:03:16.287Z,8.03
2022-11-15T10:05:56.274Z,4.60
2022-11-15T10:08:46.034Z,5.30
2022-11-15T10:11:39.727Z,4.80
2022-11-15T10:14:19.030Z,5.93
2022-11-15T10:17:00.713Z,5.53
2022-11-15T10:19:56.572Z,3.70
2022-11-15T10:22:27.711Z,3.03
2022-11-15T10:25:09.633Z,6.33
2022-11-15T10:27:37.068Z,3.53
2022-11-15T10:30:11.171Z,2.73
2022-11-15T10:32:38.536Z,3.33
2022-11-15T10:35:30.313Z,2.40
2022-11-15T10:38:09.016Z,2.80
2022-11-15T10:40:36.899Z,3.13
2022-11-15T10:43:22.854Z,2.13
2022-11-15T10:45:50.935Z,5.23
2022-11-15T10:48:23.618Z,3.67
2022-11-15T10:50:52.352Z,4.77
2022-11-15T10:53:25.811Z,5.43
2022-11-15T10:56:04.650Z,2.03
2022-11-15T10:58:39.057Z,2.00
2022-11-15T11:01:10.543Z,5.03
2022-11-15T11:03:39.516Z,5.93
2022-11-15T11:06:18.816Z,5.70
2022-11-15T11:09:22.499Z,3.97
2022-11-15T11:11:56.259Z,2.50
2022-11-15T11:14:34.398Z,1.53
2022-11-15T11:17:30.435Z,5.03
2022-11-15T11:20:05.710Z,4.33
2022-11-15T11:22:51.198Z,4.43
2022-11-15T11:26:15.001Z,2.63
2022-11-15T11:29:18.560Z,2.50
2022-11-15T11:32:01.116Z,1.83
2022-11-15T11:34:33.750Z,4.27
2022-11-15T11:37:14.416Z,6.40
2022-11-15T11:39:55.792Z,3.43
2022-11-15T11:42:45.846Z,4.07
2022-11-15T11:45:15.103Z,4.43
2022-11-15T11:47:49.376Z,4.57
2022-11-15T11:50:21.597Z,3.90
2022-11-15T11:53:00.924Z,3.20
2022-11-15T11:55:51.440Z,3.77
2022-11-15T11:58:41.503Z,2.03
2022-11-15T12:01:21.318Z,6.40
2022-11-15T12:04:09.452Z,4.30
2022-11-15T12:06:59.095Z,4.03
2022-11-15T12:09:39.111Z,3.80
2022-11-15T12:12:26.096Z,3.73
2022-11-15T12:14:55.696Z,3.10
2022-11-15T12:17:32.924Z,4.50
2022-11-15T12:20:19.801Z,3.00
2022-11-15T12:23:16.569Z,4.87
2022-11-15T12:26:04.285Z,2.90
2022-11-15T12:29:05.982Z,2.67
2022-11-15T12:31:36.290Z,6.23
2022-11-15T12:34:24.479Z,4.37
2022-11-15T12:36:54.964Z,5.80
2022-11-15T12:39:21.981Z,6.73
2022-11-15T12:41:57.834Z,2.83
2022-11-15T12:44:44.550Z,7.10
2022-11-15T12:47:11.202Z,4.13
2022-11-15T12:49:37.904Z,5.07
2022-11-15T12:52:07.347Z,3.37
2022-11-15T12:54:51.384Z,4.97
2022-11-15T12:57:18.081Z,4.40
2022-11-15T12:59:59.884Z,2.50
2022-11-15T13:02:30.197Z,3.50
2022-11-15T13:05:17.031Z,4.90
2022-11-15T13:07:52.109Z,6.80
2022-11-15T13:10:28.619Z,4.03
2022-11-15T13:13:16.171Z,8.33
2022-11-15T13:15:58.919Z,1.90
2022-11-15T13:18:33.010Z,5.53
2022-11-15T13:21:02.558Z,4.43
2022-11-15T13:23:29.904Z,3.00
2022-11-15T13:26:11.561Z,8.13
2022-11-15T13:28:53.340Z,2.37
2022-11-15T13:31:28.032Z,3.20
2022-11-15T13:34:02.510Z,4.33
2022-11-15T13:36:35.195Z,3.00
2022-11-15T13:39:13.739Z,2.57
2022-11-15T13:41:50.375Z,2.53
2022-11-15T13:44:23.304Z,2.27
2022-11-15T13:46:50.169Z,2.73
2022-11-15T13:49:17.562Z,4.23
2022-11-15T13:51:55.377Z,3.57
2022-11-15T13:54:26.308Z,4.73
2022-11-15T13:57:28.718Z,4.27
2022-11-15T14:00:05.380Z,6.87
2022-11-15T14:02:35.053Z,7.17
2022-11-15T14:05:16.709Z,3.70
2022-11-15T14:07:59.441Z,6.33
2022-11-15T14:10:37.561Z,6.03
2022-11-15T14:13:11.424Z,6.03
2022-11-15T14:15:40.095Z,4.17
2022-11-15T14:18:07.381Z,3.23
2022-11-15T14:20:37.349Z,6.33
2022-11-15T14:23:25.362Z,5.87
2022-11-15T14:25:56.883Z,3.80
2022-11-15T14:28:23.580Z,8.07
2022-11-15T14:30:52.669Z,6.23
2022-11-15T14:33:24.012Z,3.03
2022-11-15T14:35:54.221Z,3.07
2022-11-15T14:38:20.975Z,4.80
2022-11-15T14:40:50.279Z,5.27
2022-11-15T14:43:17.632Z,1.53
2022-11-15T14:45:47.335Z,2.63
2022-11-15T14:48:14.130Z,7.33
2022-11-15T14:50:40.970Z,2.93
2022-11-15T14:53:12.419Z,6.07
2022-11-15T14:55:39.515Z,3.80
2022-11-15T14:58:10.543Z,6.90
2022-11-15T15:00:39.705Z,3.60
2022-11-15T15:03:10.540Z,3.37
2022-11-15T15:05:39.839Z,3.37
2022-11-15T15:08:09.561Z,6.37
2022-11-15T15:10:41.365Z,1.53
2022-11-15T15:13:27.065Z,9.77
2022-11-15T15:15:53.798Z,5.17
2022-11-15T15:18:21.371Z,5.77
2022-11-15T15:20:56.422Z,6.10
2022-11-15T15:23:25.035Z,5.20
2022-11-15T15:25:53.818Z,3.43
2022-11-15T15:28:20.811Z,2.37
2022-11-15T15:30:47.695Z,9.20
2022-11-15T15:33:14.479Z,2.87
2022-11-15T15:35:41.350Z,4.57
2022-11-15T15:38:11.998Z,4.50
2022-11-15T15:40:38.898Z,4.17
2022-11-15T15:43:05.607Z,3.27
2022-11-15T15:45:33.269Z,4.73
2022-11-15T15:47:59.975Z,3.37
2022-11-15T15:50:33.393Z,5.00
2022-11-15T15:53:04.356Z,7.83
2022-11-15T15:55:31.900Z,4.03
2022-11-15T15:57:58.914Z,5.30
2022-11-15T16:00:26.409Z,2.83
2022-11-15T16:02:53.794Z,11.53
2022-11-15T16:05:20.717Z,5.67
2022-11-15T16:07:49.932Z,3.80
2022-11-15T16:10:21.366Z,5.67
2022-11-15T16:12:48.928Z,4.50
2022-11-15T16:15:15.737Z,4.00
2022-11-15T16:17:48.289Z,3.60
2022-11-15T16:20:34.057Z,5.90
2022-11-15T16:23:07.581Z,4.93
2022-11-15T16:26:03.954Z,4.80
2022-11-15T16:28:35.363Z,4.37
2022-11-15T16:31:06.531Z,2.53
2022-11-15T16:33:34.115Z,5.23
2022-11-15T16:36:01.450Z,4.60
2022-11-15T16:38:28.281Z,6.00
2022-11-15T16:40:55.073Z,6.43
2022-11-15T16:43:21.857Z,3.60
2022-11-15T16:45:49.916Z,3.23
2022-11-15T16:48:26.850Z,5.27
2022-11-15T16:50:58.366Z,6.30
2022-11-15T16:53:26.670Z,3.77
2022-11-15T16:55:54.742Z,5.90
2022-11-15T16:58:21.998Z,9.57
2022-11-15T17:00:56.409Z,6.10
2022-11-15T17:03:24.521Z,5.90
2022-11-15T17:05:51.699Z,3.20
2022-11-15T17:08:20.872Z,4.53
2022-11-15T17:10:47.955Z,4.23
2022-11-15T17:13:15.011Z,4.20
2022-11-15T17:15:41.979Z,4.03
2022-11-15T17:18:12.986Z,5.73
2022-11-15T17:20:41.561Z,5.70
2022-11-15T17:23:15.052Z,3.33
2022-11-15T17:25:42.312Z,8.43
2022-11-15T17:28:09.275Z,6.00
2022-11-15T17:30:42.119Z,7.00
2022-11-15T17:33:11.789Z,7.97
2022-11-15T17:35:38.526Z,5.20
2022-11-15T17:38:08.425Z,5.50
2022-11-15T17:40:35.158Z,4.40
2022-11-15T17:43:05.244Z,6.60
2022-11-15T17:45:31.925Z,3.50
2022-11-15T17:48:00.997Z,7.50
2022-11-15T17:50:27.669Z,5.97
2022-11-15T17:52:55.034Z,5.13
2022-11-15T17:55:21.712Z,6.30
2022-11-15T17:57:48.472Z,8.17
2022-11-15T18:00:15.897Z,8.63
2022-11-15T18:02:42.567Z,7.33
2022-11-15T18:05:09.400Z,5.53
2022-11-15T18:07:36.120Z,6.30
2022-11-15T18:10:05.535Z,6.30
2022-11-15T18:12:32.399Z,5.27
2022-11-15T18:15:00.142Z,7.67
2022-11-15T18:17:29.698Z,11.20
2022-11-15T18:19:56.478Z,8.27
2022-11-15T18:22:23.718Z,7.13
2022-11-15T18:24:50.379Z,5.20
2022-11-15T18:27:17.041Z,8.90
2022-11-15T18:29:44.948Z,8.87
2022-11-15T18:32:15.187Z,8.87
2022-11-15T18:34:41.928Z,6.03
2022-11-15T18:37:16.138Z,5.83
2022-11-15T18:39:42.930Z,9.23
2022-11-15T18:42:09.804Z,6.83
2022-11-15T18:44:36.514Z,7.70
2022-11-15T18:47:03.339Z,8.50
2022-11-15T18:49:30.137Z,5.53
2022-11-15T18:51:57.043Z,6.90
2022-11-15T18:54:30.961Z,7.03
2022-11-15T18:56:58.278Z,12.43
2022-11-15T18:59:27.582Z,8.67
2022-11-15T19:01:56.061Z,7.60
2022-11-15T19:04:22.916Z,7.77
2022-11-15T19:06:50.743Z,7.23
2022-11-15T19:09:19.154Z,8.80
2022-11-15T19:11:51.588Z,7.90
2022-11-15T19:14:19.232Z,6.93
2022-11-15T19:16:52.571Z,7.83
2022-11-15T19:19:22.012Z,11.30
2022-11-15T19:21:48.929Z,6.93
2022-11-15T19:24:15.906Z,9.13
2022-11-15T19:26:42.996Z,7.73
2022-11-15T19:29:10.541Z,7.57
2022-11-15T19:31:40.890Z,7.27
2022-11-15T19:34:08.470Z,9.73
2022-11-15T19:36:39.080Z,6.90
2022-11-15T19:39:15.227Z,6.97
2022-11-15T19:41:43.672Z,10.37
2022-11-15T19:44:11.660Z,7.67
2022-11-15T19:46:38.966Z,7.73
2022-11-15T19:49:07.892Z,7.90
2022-11-15T19:51:36.507Z,8.77
2022-11-15T19:54:06.737Z,8.37
2022-11-15T19:56:34.840Z,8.50
2022-11-15T19:59:02.785Z,8.97
2022-11-15T20:01:34.158Z,8.53
2022-11-15T20:04:01.020Z,8.33
2022-11-15T20:06:30.602Z,9.30
2022-11-15T20:08:58.295Z,9.40
2022-11-15T20:11:25.855Z,9.93
2022-11-15T20:13:56.250Z,8.37
2022-11-15T20:16:23.536Z,9.33
2022-11-15T20:18:51.069Z,9.50
2022-11-15T20:21:18.478Z,10.30
2022-11-15T20:23:45.349Z,8.17
2022-11-15T20:26:14.713Z,9.77
2022-11-15T20:28:41.427Z,10.77
2022-11-15T20:31:12.543Z,11.00
2022-11-15T20:33:41.932Z,11.10
2022-11-15T20:36:11.867Z,11.27
2022-11-15T20:38:39.122Z,10.50
2022-11-15T20:41:06.396Z,9.77
2022-11-15T20:43:36.011Z,9.70
2022-11-15T20:46:02.761Z,12.70
2022-11-15T20:48:31.028Z,10.60
2022-11-15T20:51:05.882Z,9.20
2022-11-15T20:53:32.987Z,9.03
2022-11-15T20:56:08.566Z,10.50
2022-11-15T20:58:36.729Z,12.70
2022-11-15T21:01:05.663Z,11.43
2022-11-15T21:03:33.307Z,9.50
2022-11-15T21:06:02.991Z,13.30
2022-11-15T21:08:50.103Z,11.67
2022-11-15T21:11:35.376Z,13.70
2022-11-15T21:14:08.951Z,14.03
2022-11-15T21:16:36.816Z,11.00
2022-11-15T21:19:03.602Z,14.60
2022-11-15T21:21:30.315Z,11.77
2022-11-15T21:23:57.017Z,11.83
2022-11-15T21:26:23.732Z,12.80
2022-11-15T21:28:50.500Z,12.30
2022-11-15T21:31:17.531Z,13.43
2022-11-15T21:33:44.241Z,9.90
2022-11-15T21:36:11.100Z,10.50
2022-11-15T21:38:38.277Z,11.70
2022-11-15T21:41:07.563Z,12.13
2022-11-15T21:43:34.385Z,11.67
2022-11-15T21:46:06.271Z,9.83
2022-11-15T21:48:35.552Z,10.10
2022-11-15T21:51:05.053Z,9.63
2022-11-15T21:53:32.993Z,11.07
2022-11-15T21:56:00.951Z,11.57
2022-11-15T21:58:28.689Z,11.67
2022-11-15T22:01:15.258Z,13.20
2022-11-15T22:03:42.679Z,13.00
2022-11-15T22:06:14.497Z,9.97
2022-11-15T22:08:45.378Z,11.20
2022-11-15T22:11:12.364Z,10.40
2022-11-15T22:13:39.097Z,10.73
2022-11-15T22:16:06.491Z,11.73
2022-11-15T22:18:37.019Z,11.50
2022-11-15T22:21:12.814Z,11.30
2022-11-15T22:23:40.701Z,10.87
2022-11-15T22:26:10.030Z,14.40
2022-11-15T22:28:37.071Z,12.63
2022-11-15T22:31:04.030Z,9.53
2022-11-15T22:33:32.911Z,9.53
2022-11-15T22:36:00.489Z,9.63
2022-11-15T22:38:28.508Z,11.07
2022-11-15T22:40:55.552Z,12.70
2022-11-15T22:43:23.866Z,12.00
2022-11-15T22:45:59.674Z,9.37
2022-11-15T22:48:32.908Z,13.33
2022-11-15T22:51:00.309Z,14.47
2022-11-15T22:53:27.559Z,10.83
2022-11-15T22:55:56.554Z,11.93
2022-11-15T22:58:25.137Z,10.03
2022-11-15T23:00:57.430Z,7.90
2022-11-15T23:03:25.763Z,10.00
2022-11-15T23:05:52.584Z,10.00
2022-11-15T23:08:19.699Z,9.90
2022-11-15T23:11:05.561Z,10.67
2022-11-15T23:13:33.506Z,9.67
2022-11-15T23:16:22.959Z,10.83
2022-11-15T23:19:02.576Z,10.53
2022-11-15T23:21:57.237Z,11.17
2022-11-15T23:24:24.786Z,10.47
2022-11-15T23:26:54.935Z,10.73
2022-11-15T23:29:23.621Z,10.77
2022-11-15T23:32:09.883Z,10.30
2022-11-15T23:34:39.095Z,11.97
2022-11-15T23:37:06.959Z,9.87
2022-11-15T23:39:33.808Z,14.70
2022-11-15T23:42:08.871Z,9.00
2022-11-15T23:44:36.500Z,10.20
2022-11-15T23:47:03.572Z,10.33
2022-11-15T23:49:30.344Z,10.27
2022-11-15T23:51:57.143Z,10.70
2022-11-15T23:54:23.946Z,11.00
2022-11-15T23:56:50.633Z,12.53
2022-11-15T23:59:20.301Z,10.00
